createdAt,value
2019-01-10T00:00:48.886Z,66.60
2019-01-10T00:01:54.663Z,68.72
2019-01-10T00:03:00.382Z,70.65
2019-01-10T00:04:06.795Z,64.12
2019-01-10T00:05:13.461Z,65.35
2019-01-10T00:06:19.328Z,65.70
2019-01-10T00:07:26.437Z,68.50
2019-01-10T00:08:32.289Z,66.55
2019-01-10T00:09:38.129Z,63.65
2019-01-10T00:10:43.968Z,69.37
2019-01-10T00:11:49.858Z,63.78
2019-01-10T00:12:57.003Z,63.92
2019-01-10T00:14:02.929Z,56.83
2019-01-10T00:15:12.161Z,62.98
2019-01-10T00:16:17.923Z,61.35
2019-01-10T00:17:23.779Z,53.02
2019-01-10T00:18:29.678Z,62.43
2019-01-10T00:19:35.541Z,61.00
2019-01-10T00:20:41.337Z,58.02
2019-01-10T00:21:47.294Z,59.63
2019-01-10T00:22:53.164Z,62.23
2019-01-10T00:23:59.042Z,62.62
2019-01-10T00:25:05.837Z,58.33
2019-01-10T00:26:15.886Z,59.65
2019-01-10T00:27:21.716Z,60.20
2019-01-10T00:28:27.635Z,62.17
2019-01-10T00:29:33.478Z,58.05
2019-01-10T00:30:39.336Z,55.28
2019-01-10T00:31:46.418Z,67.10
2019-01-10T00:32:52.258Z,58.28
2019-01-10T00:33:58.234Z,61.55
2019-01-10T00:35:04.722Z,61.50
2019-01-10T00:36:10.724Z,59.40
2019-01-10T00:37:17.720Z,60.43
2019-01-10T00:38:23.504Z,64.20
2019-01-10T00:39:30.645Z,58.65
2019-01-10T00:40:36.445Z,57.40
2019-01-10T00:41:42.289Z,64.15
2019-01-10T00:42:49.532Z,62.62
2019-01-10T00:43:55.953Z,59.00
2019-01-10T00:45:01.871Z,62.40
2019-01-10T00:46:07.951Z,61.35
2019-01-10T00:47:13.828Z,66.12
2019-01-10T00:48:19.685Z,61.92
2019-01-10T00:49:25.670Z,64.20
2019-01-10T00:50:31.549Z,62.62
2019-01-10T00:51:37.445Z,59.77
2019-01-10T00:52:43.217Z,63.60
2019-01-10T00:53:49.050Z,66.57
2019-01-10T00:54:56.048Z,58.78
2019-01-10T00:56:01.921Z,62.40
2019-01-10T00:57:07.916Z,65.20
2019-01-10T00:58:13.695Z,60.78
2019-01-10T00:59:19.599Z,66.20
2019-01-10T01:00:27.747Z,68.52
2019-01-10T01:01:33.678Z,65.45
2019-01-10T01:02:39.649Z,60.98
2019-01-10T01:03:45.477Z,68.00
2019-01-10T01:04:51.312Z,63.80
2019-01-10T01:05:57.119Z,65.75
2019-01-10T01:07:03.018Z,60.52
2019-01-10T01:08:08.956Z,72.05
2019-01-10T01:09:15.198Z,65.37
2019-01-10T01:10:23.139Z,62.25
2019-01-10T01:11:29.000Z,59.05
2019-01-10T01:12:34.819Z,65.00
2019-01-10T01:13:40.651Z,64.77
2019-01-10T01:14:46.438Z,65.10
2019-01-10T01:15:53.678Z,64.32
2019-01-10T01:16:59.459Z,59.85
2019-01-10T01:18:05.256Z,71.42
2019-01-10T01:19:11.054Z,69.32
2019-01-10T01:20:19.874Z,69.77
2019-01-10T01:21:27.069Z,62.90
2019-01-10T01:22:32.871Z,69.45
2019-01-10T01:23:38.717Z,67.08
2019-01-10T01:24:44.510Z,72.87
2019-01-10T01:25:50.302Z,69.55
2019-01-10T01:26:56.099Z,66.07
2019-01-10T01:28:01.910Z,62.40
2019-01-10T01:29:07.729Z,61.37
2019-01-10T01:30:16.022Z,62.50
2019-01-10T01:31:21.795Z,64.10
2019-01-10T01:32:27.587Z,64.32
2019-01-10T01:33:33.470Z,61.13
2019-01-10T01:34:39.406Z,64.12
2019-01-10T01:35:45.241Z,62.85
2019-01-10T01:36:51.058Z,67.78
2019-01-10T01:37:56.902Z,67.00
2019-01-10T01:39:02.768Z,68.85
2019-01-10T01:40:10.420Z,65.60
2019-01-10T01:41:16.268Z,64.72
2019-01-10T01:42:23.563Z,60.23
2019-01-10T01:43:29.705Z,66.90
2019-01-10T01:44:35.585Z,63.17
2019-01-10T01:45:41.441Z,63.52
2019-01-10T01:46:47.315Z,63.15
2019-01-10T01:47:53.216Z,60.92
2019-01-10T01:48:59.078Z,68.12
2019-01-10T01:50:06.211Z,59.83
2019-01-10T01:51:13.161Z,62.13
2019-01-10T01:52:19.031Z,60.33
2019-01-10T01:53:24.885Z,66.15
2019-01-10T01:54:30.728Z,61.90
2019-01-10T01:55:36.572Z,61.95
2019-01-10T01:56:42.454Z,65.22
2019-01-10T01:57:48.513Z,64.42
2019-01-10T01:58:54.655Z,60.10
2019-01-10T02:00:01.829Z,67.42
2019-01-10T02:01:16.817Z,62.73
2019-01-10T02:02:22.729Z,63.52
2019-01-10T02:03:28.921Z,63.65
2019-01-10T02:04:34.710Z,68.00
2019-01-10T02:05:41.452Z,59.13
2019-01-10T02:06:47.271Z,60.20
2019-01-10T02:07:53.766Z,62.33
2019-01-10T02:08:59.695Z,65.57
2019-01-10T02:10:07.835Z,61.50
2019-01-10T02:11:13.985Z,65.57
2019-01-10T02:12:19.830Z,63.50
2019-01-10T02:13:25.651Z,64.72
2019-01-10T02:14:31.438Z,64.40
2019-01-10T02:15:37.269Z,70.97
2019-01-10T02:16:43.006Z,69.97
2019-01-10T02:17:49.565Z,65.00
2019-01-10T02:18:57.042Z,73.42
2019-01-10T02:20:03.354Z,67.78
2019-01-10T02:21:09.171Z,64.92
2019-01-10T02:22:15.058Z,69.55
2019-01-10T02:23:21.067Z,65.65
2019-01-10T02:24:26.847Z,66.50
2019-01-10T02:25:32.781Z,66.17
2019-01-10T02:26:38.712Z,66.20
2019-01-10T02:27:44.539Z,63.60
2019-01-10T02:28:50.446Z,63.75
2019-01-10T02:29:56.241Z,64.35
2019-01-10T02:31:02.172Z,70.45
2019-01-10T02:32:08.072Z,68.17
2019-01-10T02:33:13.978Z,66.53
2019-01-10T02:34:19.848Z,63.58
2019-01-10T02:35:25.668Z,65.35
2019-01-10T02:36:31.421Z,70.85
2019-01-10T02:37:37.312Z,60.55
2019-01-10T02:38:43.157Z,66.00
2019-01-10T02:39:49.050Z,66.02
2019-01-10T02:40:55.432Z,72.42
2019-01-10T02:42:02.421Z,63.48
2019-01-10T02:43:09.501Z,62.45
2019-01-10T02:44:15.718Z,67.27
2019-01-10T02:45:22.080Z,66.45
2019-01-10T02:46:27.863Z,63.33
2019-01-10T02:47:33.581Z,68.02
2019-01-10T02:48:39.459Z,66.72
2019-01-10T02:49:45.305Z,69.27
2019-01-10T02:50:51.250Z,74.27
2019-01-10T02:51:57.077Z,74.95
2019-01-10T02:53:02.898Z,70.00
2019-01-10T02:54:08.629Z,75.30
2019-01-10T02:55:14.690Z,69.70
2019-01-10T02:56:20.550Z,69.27
2019-01-10T02:57:26.359Z,70.37
2019-01-10T02:58:32.133Z,69.67
2019-01-10T02:59:37.943Z,67.75
2019-01-10T03:00:43.930Z,72.17
2019-01-10T03:01:50.088Z,67.67
2019-01-10T03:02:55.890Z,68.25
2019-01-10T03:04:01.731Z,69.20
2019-01-10T03:05:07.721Z,73.15
2019-01-10T03:06:13.558Z,68.02
2019-01-10T03:07:19.408Z,67.17
2019-01-10T03:08:25.258Z,70.30
2019-01-10T03:09:31.029Z,73.00
2019-01-10T03:10:36.909Z,64.35
2019-01-10T03:11:43.839Z,66.55
2019-01-10T03:12:49.818Z,71.30
2019-01-10T03:13:56.648Z,74.47
2019-01-10T03:15:02.378Z,66.47
2019-01-10T03:16:08.689Z,67.92
2019-01-10T03:17:14.439Z,68.60
2019-01-10T03:18:20.265Z,68.80
2019-01-10T03:19:26.141Z,68.40
2019-01-10T03:20:33.117Z,66.17
2019-01-10T03:21:38.990Z,67.22
2019-01-10T03:22:44.782Z,71.72
2019-01-10T03:24:03.793Z,68.55
2019-01-10T03:25:10.640Z,68.90
2019-01-10T03:26:16.449Z,71.60
2019-01-10T03:27:22.438Z,76.10
2019-01-10T03:28:28.247Z,72.78
2019-01-10T03:29:34.148Z,71.55
2019-01-10T03:30:39.930Z,75.35
2019-01-10T03:31:46.810Z,71.80
2019-01-10T03:32:52.622Z,73.65
2019-01-10T03:33:58.475Z,72.60
2019-01-10T03:35:05.098Z,75.03
2019-01-10T03:36:11.048Z,76.92
2019-01-10T03:37:16.855Z,73.45
2019-01-10T03:38:22.608Z,73.02
2019-01-10T03:39:28.383Z,69.00
2019-01-10T03:40:35.158Z,75.17
2019-01-10T03:41:40.930Z,69.90
2019-01-10T03:42:46.789Z,74.77
2019-01-10T03:43:55.169Z,68.95
2019-01-10T03:45:00.900Z,71.33
2019-01-10T03:46:06.806Z,76.77
2019-01-10T03:47:13.448Z,75.03
2019-01-10T03:48:19.271Z,71.40
2019-01-10T03:49:25.101Z,77.12
2019-01-10T03:50:30.917Z,73.90
2019-01-10T03:51:36.751Z,73.15
2019-01-10T03:52:42.621Z,76.90
2019-01-10T03:53:48.426Z,75.50
2019-01-10T03:54:54.553Z,80.77
2019-01-10T03:56:00.313Z,76.28
2019-01-10T03:57:06.120Z,83.35
2019-01-10T03:58:11.982Z,76.28
2019-01-10T03:59:17.869Z,70.90
2019-01-10T04:00:26.277Z,81.75
2019-01-10T04:01:32.139Z,70.95
2019-01-10T04:02:37.893Z,70.72
2019-01-10T04:03:43.688Z,71.60
2019-01-10T04:04:49.949Z,74.62
2019-01-10T04:05:55.804Z,77.95
2019-01-10T04:07:03.707Z,77.30
2019-01-10T04:08:09.523Z,88.92
2019-01-10T04:09:15.268Z,75.62
2019-01-10T04:10:21.251Z,77.72
2019-01-10T04:11:26.998Z,80.28
2019-01-10T04:12:32.794Z,79.25
2019-01-10T04:13:38.661Z,71.40
2019-01-10T04:14:44.428Z,76.28
2019-01-10T04:15:50.346Z,76.55
2019-01-10T04:16:56.139Z,77.15
2019-01-10T04:18:01.954Z,79.35
2019-01-10T04:19:07.796Z,76.42
2019-01-10T04:20:15.003Z,76.22
2019-01-10T04:21:20.832Z,76.80
2019-01-10T04:22:26.614Z,76.50
2019-01-10T04:23:32.433Z,75.12
2019-01-10T04:24:38.731Z,75.15
2019-01-10T04:25:44.594Z,75.67
2019-01-10T04:26:50.354Z,72.70
2019-01-10T04:27:56.148Z,76.62
2019-01-10T04:29:02.002Z,76.47
2019-01-10T04:30:10.432Z,70.50
2019-01-10T04:31:17.504Z,76.40
2019-01-10T04:32:23.316Z,76.15
2019-01-10T04:33:29.628Z,73.70
2019-01-10T04:34:35.939Z,74.32
2019-01-10T04:35:43.063Z,77.47
2019-01-10T04:36:52.004Z,78.95
2019-01-10T04:37:58.589Z,71.07
2019-01-10T04:39:06.092Z,74.12
2019-01-10T04:40:14.768Z,69.17
2019-01-10T04:41:20.675Z,80.57
2019-01-10T04:42:26.550Z,76.05
2019-01-10T04:43:32.515Z,75.60
2019-01-10T04:44:39.298Z,84.35
2019-01-10T04:45:45.163Z,70.60
2019-01-10T04:46:51.017Z,77.25
2019-01-10T04:47:56.855Z,78.15
2019-01-10T04:49:02.629Z,70.30
2019-01-10T04:50:09.246Z,77.22
2019-01-10T04:51:14.989Z,73.28
2019-01-10T04:52:20.898Z,73.70
2019-01-10T04:53:28.204Z,73.40
2019-01-10T04:54:38.262Z,66.05
2019-01-10T04:55:41.835Z,68.62
2019-01-10T04:56:47.703Z,71.17
2019-01-10T04:57:53.609Z,63.98
2019-01-10T04:58:59.464Z,72.72
2019-01-10T05:00:09.619Z,69.62
2019-01-10T05:01:16.678Z,73.20
2019-01-10T05:02:22.614Z,71.70
2019-01-10T05:03:28.555Z,70.95
2019-01-10T05:04:34.320Z,68.92
2019-01-10T05:05:41.202Z,69.97
2019-01-10T05:06:48.133Z,72.42
2019-01-10T05:07:54.014Z,70.85
2019-01-10T05:08:59.936Z,70.05
2019-01-10T05:10:07.134Z,76.57
2019-01-10T05:11:12.880Z,71.42
2019-01-10T05:12:18.597Z,77.50
2019-01-10T05:13:24.338Z,71.02
2019-01-10T05:14:30.148Z,70.80
2019-01-10T05:15:35.929Z,69.72
2019-01-10T05:16:41.683Z,70.17
2019-01-10T05:17:47.449Z,65.42
2019-01-10T05:18:53.261Z,68.95
2019-01-10T05:19:59.470Z,68.72
2019-01-10T05:21:05.563Z,72.92
2019-01-10T05:22:11.808Z,70.30
2019-01-10T05:23:17.546Z,71.40
2019-01-10T05:24:23.299Z,76.15
2019-01-10T05:25:29.105Z,73.25
2019-01-10T05:26:34.811Z,70.83
2019-01-10T05:27:40.966Z,70.57
2019-01-10T05:28:46.735Z,73.83
2019-01-10T05:29:52.538Z,69.17
2019-01-10T05:30:58.390Z,70.57
2019-01-10T05:32:04.189Z,71.25
2019-01-10T05:33:10.012Z,71.75
2019-01-10T05:34:15.818Z,72.47
2019-01-10T05:35:21.721Z,69.32
2019-01-10T05:36:27.536Z,71.87
2019-01-10T05:37:33.329Z,72.70
2019-01-10T05:38:39.008Z,70.47
2019-01-10T05:39:47.724Z,68.05
2019-01-10T05:40:52.238Z,70.15
2019-01-10T05:41:58.070Z,73.07
2019-01-10T05:43:03.881Z,69.05
2019-01-10T05:44:09.659Z,71.35
2019-01-10T05:45:16.150Z,75.83
2019-01-10T05:46:21.957Z,66.33
2019-01-10T05:47:27.788Z,68.65
2019-01-10T05:48:33.558Z,70.62
2019-01-10T05:49:39.272Z,74.10
2019-01-10T05:50:45.026Z,66.77
2019-01-10T05:51:51.891Z,68.12
2019-01-10T05:52:57.750Z,74.95
2019-01-10T05:54:03.569Z,69.15
2019-01-10T05:55:11.819Z,66.35
2019-01-10T05:56:17.628Z,68.25
2019-01-10T05:57:23.518Z,66.20
2019-01-10T05:58:29.422Z,68.40
2019-01-10T05:59:35.268Z,68.05
2019-01-10T06:00:41.057Z,65.50
2019-01-10T06:01:46.881Z,67.50
2019-01-10T06:02:52.720Z,71.65
2019-01-10T06:03:58.554Z,63.90
2019-01-10T06:05:04.636Z,64.40
2019-01-10T06:06:10.470Z,64.42
2019-01-10T06:07:16.303Z,66.42
2019-01-10T06:08:22.210Z,66.75
2019-01-10T06:09:27.994Z,65.12
2019-01-10T06:10:33.803Z,65.32
2019-01-10T06:11:39.640Z,68.45
2019-01-10T06:12:45.409Z,62.08
2019-01-10T06:13:52.639Z,63.78
2019-01-10T06:14:58.445Z,63.15
2019-01-10T06:16:04.363Z,61.48
2019-01-10T06:17:10.189Z,71.65
2019-01-10T06:18:16.077Z,67.22
2019-01-10T06:19:26.656Z,62.23
2019-01-10T06:20:29.375Z,61.20
2019-01-10T06:21:35.152Z,63.63
2019-01-10T06:22:40.859Z,65.83
2019-01-10T06:23:46.627Z,65.52
2019-01-10T06:24:53.407Z,64.65
2019-01-10T06:25:59.213Z,63.68
2019-01-10T06:27:05.021Z,60.92
2019-01-10T06:28:10.859Z,70.15
2019-01-10T06:29:16.598Z,64.42
2019-01-10T06:30:24.039Z,64.00
2019-01-10T06:31:29.849Z,62.17
2019-01-10T06:32:35.709Z,68.10
2019-01-10T06:33:41.559Z,64.42
2019-01-10T06:34:47.406Z,71.97
2019-01-10T06:35:55.986Z,64.27
2019-01-10T06:37:01.820Z,63.73
2019-01-10T06:38:08.077Z,58.50
2019-01-10T06:39:13.917Z,61.20
2019-01-10T06:40:21.578Z,65.32
2019-01-10T06:41:27.360Z,59.27
2019-01-10T06:42:33.182Z,64.35
2019-01-10T06:43:39.081Z,65.10
2019-01-10T06:44:45.339Z,69.42
2019-01-10T06:45:51.210Z,63.68
2019-01-10T06:46:56.952Z,65.17
2019-01-10T06:48:02.821Z,68.70
2019-01-10T06:49:08.519Z,70.55
2019-01-10T06:50:15.370Z,68.95
2019-01-10T06:51:21.159Z,63.35
2019-01-10T06:52:26.968Z,66.92
2019-01-10T06:53:32.829Z,69.87
2019-01-10T06:54:38.691Z,71.70
2019-01-10T06:55:44.512Z,67.25
2019-01-10T06:56:50.306Z,66.05
2019-01-10T06:57:56.251Z,67.25
2019-01-10T06:59:02.329Z,66.72
2019-01-10T07:00:12.514Z,64.12
2019-01-10T07:01:18.268Z,67.25
2019-01-10T07:02:24.148Z,68.92
2019-01-10T07:03:29.929Z,66.25
2019-01-10T07:04:35.882Z,70.83
2019-01-10T07:05:41.770Z,65.37
2019-01-10T07:06:47.498Z,69.12
2019-01-10T07:07:56.534Z,68.50
2019-01-10T07:09:00.718Z,74.00
2019-01-10T07:10:12.458Z,67.45
2019-01-10T07:11:18.169Z,67.20
2019-01-10T07:12:23.955Z,68.42
2019-01-10T07:13:29.699Z,70.85
2019-01-10T07:14:35.421Z,71.42
2019-01-10T07:15:41.271Z,73.37
2019-01-10T07:16:53.535Z,68.15
2019-01-10T07:17:55.013Z,80.47
2019-01-10T07:19:00.690Z,79.70
2019-01-10T07:20:07.227Z,81.35
2019-01-10T07:21:12.984Z,73.80
2019-01-10T07:22:19.669Z,72.30
2019-01-10T07:23:25.418Z,73.33
2019-01-10T07:24:31.154Z,76.87
2019-01-10T07:25:36.998Z,74.92
2019-01-10T07:26:43.125Z,66.28
2019-01-10T07:28:10.347Z,78.10
2019-01-10T07:29:16.250Z,70.52
2019-01-10T07:30:35.802Z,77.05
2019-01-10T07:31:34.855Z,71.82
2019-01-10T07:32:40.598Z,68.87
2019-01-10T07:33:46.558Z,68.52
2019-01-10T07:35:00.313Z,65.32
2019-01-10T07:36:06.150Z,65.28
2019-01-10T07:37:12.995Z,70.95
2019-01-10T07:38:19.116Z,66.72
2019-01-10T07:39:24.998Z,67.67
2019-01-10T07:40:30.797Z,68.28
2019-01-10T07:41:39.878Z,64.72
2019-01-10T07:42:45.619Z,72.22
2019-01-10T07:43:51.325Z,71.25
2019-01-10T07:45:02.645Z,72.17
2019-01-10T07:46:07.519Z,62.53
2019-01-10T07:47:14.268Z,65.62
2019-01-10T07:48:20.087Z,60.55
2019-01-10T07:49:25.901Z,70.37
2019-01-10T07:50:36.224Z,64.58
2019-01-10T07:51:48.298Z,76.87
2019-01-10T07:52:54.087Z,72.00
2019-01-10T07:53:59.827Z,74.60
2019-01-10T07:55:05.810Z,71.97
2019-01-10T07:56:11.588Z,67.58
2019-01-10T07:57:17.409Z,74.87
2019-01-10T07:58:23.228Z,68.25
2019-01-10T07:59:29.030Z,68.78
2019-01-10T08:00:34.867Z,68.47
2019-01-10T08:01:40.750Z,73.12
2019-01-10T08:02:46.610Z,70.55
2019-01-10T08:03:52.431Z,71.30
2019-01-10T08:04:58.231Z,65.92
2019-01-10T08:06:04.828Z,73.47
2019-01-10T08:07:10.687Z,70.30
2019-01-10T08:08:16.491Z,69.25
2019-01-10T08:09:22.337Z,73.02
2019-01-10T08:10:28.132Z,69.22
2019-01-10T08:11:33.993Z,77.90
2019-01-10T08:12:40.072Z,71.50
2019-01-10T08:13:45.942Z,72.97
2019-01-10T08:14:51.978Z,73.25
2019-01-10T08:15:57.757Z,80.28
2019-01-10T08:17:03.589Z,82.15
2019-01-10T08:18:09.565Z,84.40
2019-01-10T08:19:15.389Z,80.10
2019-01-10T08:20:21.196Z,77.27
2019-01-10T08:21:26.965Z,82.92
2019-01-10T08:22:32.787Z,78.12
2019-01-10T08:23:38.640Z,88.27
2019-01-10T08:24:44.421Z,75.32
2019-01-10T08:25:50.180Z,80.67
2019-01-10T08:26:55.989Z,78.37
2019-01-10T08:28:01.870Z,76.00
2019-01-10T08:29:07.679Z,72.82
2019-01-10T08:30:16.705Z,73.30
2019-01-10T08:31:22.520Z,75.67
2019-01-10T08:32:28.329Z,73.90
2019-01-10T08:33:34.108Z,77.22
2019-01-10T08:34:39.869Z,72.40
2019-01-10T08:35:45.689Z,74.07
2019-01-10T08:36:51.408Z,70.97
2019-01-10T08:37:57.473Z,76.87
2019-01-10T08:39:04.533Z,71.75
2019-01-10T08:40:10.721Z,81.53
2019-01-10T08:41:16.449Z,78.60
2019-01-10T08:42:22.201Z,75.62
2019-01-10T08:43:29.871Z,71.67
2019-01-10T08:44:35.636Z,76.28
2019-01-10T08:45:41.420Z,70.92
2019-01-10T08:46:47.748Z,71.70
2019-01-10T08:47:53.481Z,72.92
2019-01-10T08:48:59.231Z,69.50
2019-01-10T08:50:06.548Z,76.90
2019-01-10T08:51:12.416Z,69.55
2019-01-10T08:52:18.217Z,70.37
2019-01-10T08:53:24.018Z,67.12
2019-01-10T08:54:29.829Z,69.82
2019-01-10T08:55:35.662Z,75.75
2019-01-10T08:56:41.438Z,75.32
2019-01-10T08:57:47.273Z,66.05
2019-01-10T08:58:53.009Z,68.25
2019-01-10T08:59:59.258Z,66.55
2019-01-10T09:01:05.080Z,66.67
2019-01-10T09:02:11.200Z,71.10
2019-01-10T09:03:16.998Z,72.37
2019-01-10T09:04:22.740Z,65.65
2019-01-10T09:05:29.069Z,71.20
2019-01-10T09:06:34.902Z,73.28
2019-01-10T09:07:40.829Z,71.00
2019-01-10T09:08:47.009Z,68.17
2019-01-10T09:09:54.023Z,67.82
2019-01-10T09:10:59.810Z,67.03
2019-01-10T09:12:05.629Z,66.57
2019-01-10T09:13:11.448Z,67.08
2019-01-10T09:14:17.168Z,67.55
2019-01-10T09:15:25.447Z,60.75
2019-01-10T09:16:30.322Z,62.93
2019-01-10T09:17:36.057Z,64.15
2019-01-10T09:18:41.926Z,62.75
2019-01-10T09:19:47.673Z,66.60
2019-01-10T09:20:53.440Z,62.05
2019-01-10T09:21:59.158Z,73.85
2019-01-10T09:23:05.044Z,63.55
2019-01-10T09:24:11.022Z,70.10
2019-01-10T09:25:17.871Z,72.60
2019-01-10T09:26:24.230Z,70.25
2019-01-10T09:27:30.089Z,63.45
2019-01-10T09:28:35.898Z,64.92
2019-01-10T09:29:41.778Z,70.40
2019-01-10T09:30:47.539Z,68.90
2019-01-10T09:31:53.318Z,66.15
2019-01-10T09:32:59.189Z,66.60
2019-01-10T09:34:04.949Z,69.67
2019-01-10T09:35:10.970Z,65.10
2019-01-10T09:36:16.670Z,62.13
2019-01-10T09:37:22.419Z,68.90
2019-01-10T09:38:28.240Z,65.00
2019-01-10T09:39:33.998Z,71.45
2019-01-10T09:40:39.973Z,75.10
2019-01-10T09:41:45.669Z,71.75
2019-01-10T09:42:51.426Z,72.92
2019-01-10T09:43:57.237Z,68.30
2019-01-10T09:45:03.003Z,71.53
2019-01-10T09:46:08.814Z,72.03
2019-01-10T09:47:14.719Z,66.50
2019-01-10T09:48:20.502Z,68.62
2019-01-10T09:49:26.323Z,68.10
2019-01-10T09:50:32.105Z,68.07
2019-01-10T09:51:38.091Z,65.62
2019-01-10T09:52:43.928Z,67.10
2019-01-10T09:53:49.722Z,70.15
2019-01-10T09:54:55.439Z,62.70
2019-01-10T09:56:01.242Z,70.67
2019-01-10T09:57:07.218Z,72.22
2019-01-10T09:58:13.077Z,65.32
2019-01-10T09:59:18.891Z,66.92
2019-01-10T10:00:29.423Z,66.10
2019-01-10T10:01:35.280Z,66.33
2019-01-10T10:02:41.100Z,72.30
2019-01-10T10:03:47.198Z,65.47
2019-01-10T10:04:53.009Z,68.05
2019-01-10T10:06:07.361Z,68.02
2019-01-10T10:07:06.388Z,67.58
2019-01-10T10:08:12.229Z,64.65
2019-01-10T10:09:17.989Z,70.87
2019-01-10T10:10:23.802Z,67.37
2019-01-10T10:11:34.186Z,68.25
2019-01-10T10:12:37.030Z,71.22
2019-01-10T10:13:42.839Z,65.22
2019-01-10T10:14:48.588Z,68.15
2019-01-10T10:15:54.368Z,68.75
2019-01-10T10:17:00.183Z,75.45
2019-01-10T10:18:06.638Z,68.37
2019-01-10T10:19:12.428Z,70.97
2019-01-10T10:20:20.889Z,75.70
2019-01-10T10:21:26.670Z,69.75
2019-01-10T10:22:32.429Z,66.82
2019-01-10T10:23:39.206Z,71.42
2019-01-10T10:24:45.006Z,71.30
2019-01-10T10:25:52.096Z,67.58
2019-01-10T10:26:57.837Z,71.53
2019-01-10T10:28:03.580Z,68.67
2019-01-10T10:29:09.356Z,72.42
2019-01-10T10:30:17.653Z,70.05
2019-01-10T10:31:23.417Z,68.17
2019-01-10T10:32:29.162Z,67.78
2019-01-10T10:33:34.950Z,71.35
2019-01-10T10:34:40.661Z,61.90
2019-01-10T10:35:46.458Z,65.10
2019-01-10T10:36:53.562Z,60.70
2019-01-10T10:37:59.369Z,71.05
2019-01-10T10:39:08.332Z,70.55
2019-01-10T10:40:16.452Z,76.20
2019-01-10T10:41:22.313Z,68.10
2019-01-10T10:42:28.140Z,69.72
2019-01-10T10:43:33.929Z,63.42
2019-01-10T10:44:40.082Z,64.45
2019-01-10T10:45:45.887Z,64.97
2019-01-10T10:46:51.682Z,58.92
2019-01-10T10:47:59.556Z,67.15
2019-01-10T10:49:05.922Z,62.43
2019-01-10T10:50:14.892Z,76.80
2019-01-10T10:51:20.698Z,65.50
2019-01-10T10:52:26.561Z,65.67
2019-01-10T10:53:32.786Z,67.97
2019-01-10T10:54:38.527Z,62.60
2019-01-10T10:55:45.390Z,62.55
2019-01-10T10:56:51.200Z,62.30
2019-01-10T10:57:57.182Z,64.12
2019-01-10T10:59:02.958Z,60.25
2019-01-10T11:00:12.237Z,63.52
2019-01-10T11:01:18.121Z,62.93
2019-01-10T11:02:23.936Z,69.82
2019-01-10T11:03:29.945Z,58.58
2019-01-10T11:04:35.752Z,64.35
2019-01-10T11:05:41.498Z,63.02
2019-01-10T11:06:47.241Z,59.65
2019-01-10T11:07:53.031Z,57.93
2019-01-10T11:08:58.877Z,63.42
2019-01-10T11:10:05.351Z,65.35
2019-01-10T11:11:11.209Z,62.45
2019-01-10T11:12:16.972Z,63.70
2019-01-10T11:13:22.749Z,59.65
2019-01-10T11:14:28.626Z,66.42
2019-01-10T11:15:34.340Z,66.97
2019-01-10T11:16:40.058Z,67.42
2019-01-10T11:17:46.490Z,58.00
2019-01-10T11:18:52.285Z,64.82
2019-01-10T11:19:58.159Z,60.05
2019-01-10T11:21:03.946Z,61.02
2019-01-10T11:22:10.078Z,64.77
2019-01-10T11:23:16.017Z,62.45
2019-01-10T11:24:21.809Z,62.13
2019-01-10T11:25:29.010Z,65.72
2019-01-10T11:26:34.994Z,64.40
2019-01-10T11:27:40.809Z,63.85
2019-01-10T11:28:46.542Z,72.97
2019-01-10T11:29:52.391Z,65.12
2019-01-10T11:30:59.271Z,60.03
2019-01-10T11:32:12.971Z,65.32
2019-01-10T11:33:12.557Z,65.95
2019-01-10T11:34:18.417Z,66.28
2019-01-10T11:35:24.416Z,64.92
2019-01-10T11:36:30.276Z,57.60
2019-01-10T11:37:36.070Z,58.33
2019-01-10T11:38:41.851Z,61.30
2019-01-10T11:39:47.646Z,61.25
2019-01-10T11:40:53.375Z,60.03
2019-01-10T11:42:00.197Z,66.28
2019-01-10T11:43:06.037Z,59.77
2019-01-10T11:44:11.757Z,59.73
2019-01-10T11:45:19.464Z,63.05
2019-01-10T11:46:25.209Z,64.85
2019-01-10T11:47:31.062Z,70.15
2019-01-10T11:48:36.986Z,63.40
2019-01-10T11:49:42.781Z,67.82
2019-01-10T11:50:48.557Z,68.70
2019-01-10T11:51:54.302Z,62.75
2019-01-10T11:53:00.117Z,64.67
2019-01-10T11:54:06.017Z,62.00
2019-01-10T11:55:12.073Z,61.02
2019-01-10T11:56:18.280Z,61.20
2019-01-10T11:57:24.049Z,68.97
2019-01-10T11:58:29.870Z,64.12
2019-01-10T11:59:35.718Z,65.75
2019-01-10T12:00:41.548Z,65.03
2019-01-10T12:01:47.259Z,61.60
2019-01-10T12:02:53.037Z,58.10
2019-01-10T12:03:58.923Z,65.90
2019-01-10T12:05:05.328Z,57.67
2019-01-10T12:06:11.069Z,56.55
2019-01-10T12:07:16.809Z,56.35
2019-01-10T12:08:22.517Z,61.58
2019-01-10T12:09:28.328Z,64.27
2019-01-10T12:10:34.076Z,63.13
2019-01-10T12:11:39.836Z,71.20
2019-01-10T12:12:45.995Z,62.27
2019-01-10T12:13:51.797Z,57.70
2019-01-10T12:14:57.750Z,64.87
2019-01-10T12:16:03.521Z,70.85
2019-01-10T12:17:09.338Z,58.58
2019-01-10T12:18:15.069Z,60.83
2019-01-10T12:19:20.862Z,63.48
2019-01-10T12:20:26.713Z,65.28
2019-01-10T12:21:32.568Z,64.77
2019-01-10T12:22:38.443Z,68.33
2019-01-10T12:23:44.216Z,62.25
2019-01-10T12:24:49.988Z,60.88
2019-01-10T12:25:55.799Z,69.50
2019-01-10T12:27:01.559Z,62.48
2019-01-10T12:28:09.690Z,67.32
2019-01-10T12:29:15.509Z,68.37
2019-01-10T12:30:23.854Z,69.05
2019-01-10T12:31:31.927Z,75.05
2019-01-10T12:32:38.836Z,61.92
2019-01-10T12:33:45.801Z,68.15
2019-01-10T12:34:52.731Z,71.17
2019-01-10T12:35:59.612Z,59.55
2019-01-10T12:37:07.098Z,58.33
2019-01-10T12:38:13.943Z,65.00
2019-01-10T12:39:20.721Z,60.55
2019-01-10T12:40:28.593Z,68.02
2019-01-10T12:41:35.372Z,67.00
2019-01-10T12:42:42.237Z,62.35
2019-01-10T12:43:49.021Z,67.87
2019-01-10T12:44:55.767Z,60.50
2019-01-10T12:46:02.620Z,58.25
2019-01-10T12:47:09.421Z,60.73
2019-01-10T12:48:16.293Z,65.57
2019-01-10T12:49:23.097Z,68.17
2019-01-10T12:50:34.474Z,59.35
2019-01-10T12:51:42.061Z,67.78
2019-01-10T12:52:48.957Z,60.88
2019-01-10T12:53:55.904Z,66.77
2019-01-10T12:55:03.106Z,61.37
2019-01-10T12:56:10.033Z,64.70
2019-01-10T12:57:16.842Z,69.25
2019-01-10T12:58:23.755Z,63.50
2019-01-10T12:59:30.674Z,68.62
2019-01-10T13:00:37.537Z,70.90
2019-01-10T13:01:44.446Z,60.52
2019-01-10T13:02:51.302Z,62.93
2019-01-10T13:03:58.304Z,67.67
2019-01-10T13:05:05.710Z,57.60
2019-01-10T13:06:12.621Z,62.67
2019-01-10T13:07:19.516Z,62.35
2019-01-10T13:08:26.472Z,63.87
2019-01-10T13:09:33.555Z,59.45
2019-01-10T13:10:40.553Z,61.40
2019-01-10T13:11:48.436Z,58.90
2019-01-10T13:12:55.293Z,60.08
2019-01-10T13:14:05.533Z,54.55
2019-01-10T13:15:13.425Z,56.85
2019-01-10T13:16:20.194Z,53.73
2019-01-10T13:17:27.183Z,56.75
2019-01-10T13:18:34.065Z,62.43
2019-01-10T13:19:40.825Z,53.80
2019-01-10T13:20:47.813Z,60.10
2019-01-10T13:21:54.908Z,59.30
2019-01-10T13:23:02.826Z,58.38
2019-01-10T13:24:09.774Z,57.53
2019-01-10T13:25:18.158Z,60.55
2019-01-10T13:26:24.982Z,53.68
2019-01-10T13:27:32.005Z,62.43
2019-01-10T13:28:39.109Z,56.63
2019-01-10T13:29:46.063Z,57.27
2019-01-10T13:30:53.172Z,57.40
2019-01-10T13:32:00.005Z,61.65
2019-01-10T13:33:07.221Z,66.65
2019-01-10T13:34:14.176Z,63.45
2019-01-10T13:35:20.976Z,64.85
2019-01-10T13:36:27.827Z,61.63
2019-01-10T13:37:34.744Z,62.08
2019-01-10T13:38:41.637Z,58.35
2019-01-10T13:39:48.459Z,59.10
2019-01-10T13:40:55.316Z,63.78
2019-01-10T13:42:02.106Z,62.38
2019-01-10T13:43:08.959Z,62.20
2019-01-10T13:44:15.812Z,66.50
2019-01-10T13:45:23.672Z,66.80
2019-01-10T13:46:30.535Z,64.12
2019-01-10T13:47:37.391Z,73.62
2019-01-10T13:48:44.326Z,73.75
2019-01-10T13:49:51.267Z,76.20
2019-01-10T13:50:58.115Z,86.30
2019-01-10T13:52:04.904Z,92.72
2019-01-10T13:53:12.867Z,80.90
2019-01-10T13:54:19.678Z,83.50
2019-01-10T13:55:26.669Z,83.70
2019-01-10T13:56:33.701Z,75.57
2019-01-10T13:57:44.058Z,77.90
2019-01-10T13:58:50.936Z,73.07
2019-01-10T13:59:57.843Z,72.53
2019-01-10T14:01:04.937Z,73.22
2019-01-10T14:02:11.761Z,68.35
2019-01-10T14:03:18.633Z,76.42
2019-01-10T14:04:25.469Z,66.97
2019-01-10T14:05:32.772Z,69.32
2019-01-10T14:06:39.711Z,70.95
2019-01-10T14:07:47.076Z,58.92
2019-01-10T14:08:54.034Z,66.62
2019-01-10T14:10:00.796Z,57.58
2019-01-10T14:11:07.690Z,65.37
2019-01-10T14:12:17.276Z,66.47
2019-01-10T14:13:24.050Z,68.60
2019-01-10T14:14:30.904Z,71.57